MSC Lisbon — A8LL9 — position and weather

sailwx.info

Track history (hours):
 
Tides and Currents Weather Stations Pressure Air Temp Water Temp Dewpoint Dewpoint Depression Visibility Wind Speed Wind Dir Waves Ship Positions

MSC Lisbon

Last reported at 2015-Jan-27 15:00 UTC. Time now 2015-Jan-28 16:16 UTC.
Position N 40°30' W 053°42'.

Length 336.7 m; beam 45.6 m; draft 15.3 m.

Type: Ship (hazmat cat A). MMSI: 636091276.

Wind from 140 at 48 knots

Waves 4.0 meters (13 feet), 10 second period

Barometer 1010.0 mb
Air temperature 17.0 ° C
Visibility: greater than 2.2 NM
Dewpoint 14.6 ° C
Water temperature 16.0 ° C

Date/timePositionNaut miles runAvg speedWind from/ knotsBaromVisibWave heightAir tempDewpointWater temp
2015-Jan-27 15:00N 40°30' W 053°42'57816.1 140 / 481010.0 2.2 4.017.014.616.0
2015-Jan-26 03:00N 38°12' W 065°48'   290 / 261011.010.8 15.0 7.622.0
2015-Jan-22 15:00N 30°12' W 077°48'17816.2 330 / 81023.010.8 0.525.023.624.0
2015-Jan-22 04:00N 27°30' W 079°12'   030 / 81019.010.8 24.015.526.0
2015-Jan-19 14:00N 32°06' W 079°30'52 2.2 330 / 161021.010.8 1.016.0 4.210.0
2015-Jan-18 14:12N 31°52' W 080°29'710.5
2015-Jan-18 13:32N 31°56' W 080°36'9 9.3
2015-Jan-18 12:34N 31°59' W 080°46'10 9.7
2015-Jan-18 11:34N 32°03' W 080°56'6 6.3
2015-Jan-18 10:34N 32°05' W 081°03'5 4.9
2015-Jan-18 09:34N 32°07' W 081°08'1 0.7
2015-Jan-18 08:32N 32°08' W 081°09'0 0.0
2015-Jan-18 07:32N 32°08' W 081°09'0 0.0
2015-Jan-18 06:29N 32°08' W 081°09'0 0.0
2015-Jan-18 05:32N 32°08' W 081°09'0 0.0
2015-Jan-18 04:32N 32°08' W 081°09'0 0.0
2015-Jan-18 03:31N 32°08' W 081°09'0 0.0
2015-Jan-18 02:26N 32°08' W 081°09'0 0.0
2015-Jan-18 01:33N 32°08' W 081°09'0 0.0
2015-Jan-18 00:31N 32°08' W 081°09'0 0.0
2015-Jan-17 23:32N 32°08' W 081°09'0 0.1
2015-Jan-17 22:34N 32°08' W 081°08'4 3.8
2015-Jan-17 21:34N 32°05' W 081°06'6 6.1
2015-Jan-17 20:33N 32°05' W 080°59'1211.7
2015-Jan-17 19:33N 31°59' W 080°46'9 9.3
2015-Jan-17 18:33N 31°58' W 080°35'1 1.3
2015-Jan-17 17:34N 31°58' W 080°34'0 0.0
2015-Jan-17 16:33N 31°58' W 080°34'0 0.1
2015-Jan-17 15:33N 31°58' W 080°34'  
Track history (hours):
 
Tides and Currents Weather Stations Pressure Air Temp Water Temp Dewpoint Dewpoint Depression Visibility Wind Speed Wind Dir Waves Ship Positions

MSC Lisbon

Last reported at 2015-Jan-27 15:00 UTC. Time now 2015-Jan-28 16:16 UTC.
Position N 40°30' W 053°42'.

Length 336.7 m; beam 45.6 m; draft 15.3 m.

Type: Ship (hazmat cat A). MMSI: 636091276.

Wind from 140 at 48 knots

Waves 4.0 meters (13 feet), 10 second period

Barometer 1010.0 mb
Air temperature 17.0 ° C
Visibility: greater than 2.2 NM
Dewpoint 14.6 ° C
Water temperature 16.0 ° C

Date/timePositionNaut miles runAvg speedWind from/ knotsBaromVisibWave heightAir tempDewpointWater temp
2015-Jan-27 15:00N 40°30' W 053°42'57816.1 140 / 481010.0 2.2 4.017.014.616.0
2015-Jan-26 03:00N 38°12' W 065°48'   290 / 261011.010.8 15.0 7.622.0
2015-Jan-22 15:00N 30°12' W 077°48'17816.2 330 / 81023.010.8 0.525.023.624.0
2015-Jan-22 04:00N 27°30' W 079°12'   030 / 81019.010.8 24.015.526.0
2015-Jan-19 14:00N 32°06' W 079°30'52 2.2 330 / 161021.010.8 1.016.0 4.210.0
2015-Jan-18 14:12N 31°52' W 080°29'710.5
2015-Jan-18 13:32N 31°56' W 080°36'9 9.3
2015-Jan-18 12:34N 31°59' W 080°46'10 9.7
2015-Jan-18 11:34N 32°03' W 080°56'6 6.3
2015-Jan-18 10:34N 32°05' W 081°03'5 4.9
2015-Jan-18 09:34N 32°07' W 081°08'1 0.7
2015-Jan-18 08:32N 32°08' W 081°09'0 0.0
2015-Jan-18 07:32N 32°08' W 081°09'0 0.0
2015-Jan-18 06:29N 32°08' W 081°09'0 0.0
2015-Jan-18 05:32N 32°08' W 081°09'0 0.0
2015-Jan-18 04:32N 32°08' W 081°09'0 0.0
2015-Jan-18 03:31N 32°08' W 081°09'0 0.0
2015-Jan-18 02:26N 32°08' W 081°09'0 0.0
2015-Jan-18 01:33N 32°08' W 081°09'0 0.0
2015-Jan-18 00:31N 32°08' W 081°09'0 0.0
2015-Jan-17 23:32N 32°08' W 081°09'0 0.1
2015-Jan-17 22:34N 32°08' W 081°08'4 3.8
2015-Jan-17 21:34N 32°05' W 081°06'6 6.1
2015-Jan-17 20:33N 32°05' W 080°59'1211.7
2015-Jan-17 19:33N 31°59' W 080°46'9 9.3
2015-Jan-17 18:33N 31°58' W 080°35'1 1.3
2015-Jan-17 17:34N 31°58' W 080°34'0 0.0
2015-Jan-17 16:33N 31°58' W 080°34'0 0.1
2015-Jan-17 15:33N 31°58' W 080°34'  

Dump ship's entire track history